sensor_id;sensor_type;location;lat;lon;timestamp;P1;durP1;ratioP1;P2;durP2;ratioP2
12768;SDS011;6448;48.916;8.990;2023-05-29T00:00:58;3.30;;;3.00;;
12768;SDS011;6448;48.916;8.990;2023-05-29T00:02:00;3.50;;;3.20;;
12768;SDS011;6448;48.916;8.990;2023-05-29T00:03:01;3.03;;;2.80;;
12768;SDS011;6448;48.916;8.990;2023-05-29T00:04:05;3.45;;;3.05;;
12768;SDS011;6448;48.916;8.990;2023-05-29T00:05:06;3.05;;;2.80;;
12768;SDS011;6448;48.916;8.990;2023-05-29T00:06:09;2.70;;;2.50;;
12768;SDS011;6448;48.916;8.990;2023-05-29T00:07:10;3.10;;;2.80;;
12768;SDS011;6448;48.916;8.990;2023-05-29T00:08:11;3.10;;;2.80;;
12768;SDS011;6448;48.916;8.990;2023-05-29T00:09:13;2.92;;;2.65;;
12768;SDS011;6448;48.916;8.990;2023-05-29T00:10:14;3.35;;;2.90;;
12768;SDS011;6448;48.916;8.990;2023-05-29T00:11:16;3.00;;;2.70;;
12768;SDS011;6448;48.916;8.990;2023-05-29T00:12:17;3.10;;;2.90;;
12768;SDS011;6448;48.916;8.990;2023-05-29T00:13:19;3.10;;;2.80;;
12768;SDS011;6448;48.916;8.990;2023-05-29T00:14:20;2.90;;;2.70;;
12768;SDS011;6448;48.916;8.990;2023-05-29T00:15:23;3.10;;;2.80;;
12768;SDS011;6448;48.916;8.990;2023-05-29T00:16:24;3.33;;;3.03;;
12768;SDS011;6448;48.916;8.990;2023-05-29T00:17:26;3.35;;;3.05;;
12768;SDS011;6448;48.916;8.990;2023-05-29T00:18:28;3.13;;;2.92;;
12768;SDS011;6448;48.916;8.990;2023-05-29T00:19:29;2.92;;;2.70;;
12768;SDS011;6448;48.916;8.990;2023-05-29T00:20:30;3.20;;;2.90;;
12768;SDS011;6448;48.916;8.990;2023-05-29T00:21:35;3.38;;;3.10;;
12768;SDS011;6448;48.916;8.990;2023-05-29T00:22:36;3.10;;;2.90;;
12768;SDS011;6448;48.916;8.990;2023-05-29T00:23:38;3.43;;;3.13;;
12768;SDS011;6448;48.916;8.990;2023-05-29T00:24:39;3.33;;;3.10;;
12768;SDS011;6448;48.916;8.990;2023-05-29T00:25:40;3.03;;;2.80;;
12768;SDS011;6448;48.916;8.990;2023-05-29T00:26:41;3.20;;;2.90;;
12768;SDS011;6448;48.916;8.990;2023-05-29T00:27:43;3.50;;;3.20;;
12768;SDS011;6448;48.916;8.990;2023-05-29T00:28:44;3.20;;;2.90;;
12768;SDS011;6448;48.916;8.990;2023-05-29T00:29:46;3.30;;;3.00;;
12768;SDS011;6448;48.916;8.990;2023-05-29T00:30:46;3.47;;;3.17;;
12768;SDS011;6448;48.916;8.990;2023-05-29T00:31:48;3.53;;;3.22;;
12768;SDS011;6448;48.916;8.990;2023-05-29T00:32:49;3.30;;;3.00;;
12768;SDS011;6448;48.916;8.990;2023-05-29T00:33:53;3.38;;;3.08;;
12768;SDS011;6448;48.916;8.990;2023-05-29T00:34:54;3.25;;;2.95;;
12768;SDS011;6448;48.916;8.990;2023-05-29T00:35:56;3.17;;;2.88;;
12768;SDS011;6448;48.916;8.990;2023-05-29T00:36:58;3.00;;;2.80;;
12768;SDS011;6448;48.916;8.990;2023-05-29T00:38:00;3.05;;;2.75;;
12768;SDS011;6448;48.916;8.990;2023-05-29T00:39:00;3.17;;;2.92;;
12768;SDS011;6448;48.916;8.990;2023-05-29T00:40:03;3.20;;;2.90;;
12768;SDS011;6448;48.916;8.990;2023-05-29T00:41:04;3.15;;;2.85;;
12768;SDS011;6448;48.916;8.990;2023-05-29T00:42:06;3.20;;;2.90;;
12768;SDS011;6448;48.916;8.990;2023-05-29T00:43:07;3.15;;;2.95;;
12768;SDS011;6448;48.916;8.990;2023-05-29T00:44:09;3.33;;;3.03;;
12768;SDS011;6448;48.916;8.990;2023-05-29T00:45:10;3.10;;;2.80;;
12768;SDS011;6448;48.916;8.990;2023-05-29T00:46:14;3.40;;;3.10;;
12768;SDS011;6448;48.916;8.990;2023-05-29T00:47:16;3.33;;;3.03;;
12768;SDS011;6448;48.916;8.990;2023-05-29T00:48:18;3.33;;;3.03;;
12768;SDS011;6448;48.916;8.990;2023-05-29T00:49:19;3.33;;;3.03;;
12768;SDS011;6448;48.916;8.990;2023-05-29T00:50:22;3.20;;;2.95;;
12768;SDS011;6448;48.916;8.990;2023-05-29T00:51:24;3.10;;;2.80;;
12768;SDS011;6448;48.916;8.990;2023-05-29T00:52:28;3.30;;;3.00;;
12768;SDS011;6448;48.916;8.990;2023-05-29T00:53:29;3.23;;;2.93;;
12768;SDS011;6448;48.916;8.990;2023-05-29T00:54:31;3.10;;;2.90;;
12768;SDS011;6448;48.916;8.990;2023-05-29T00:55:32;3.10;;;2.80;;
12768;SDS011;6448;48.916;8.990;2023-05-29T00:56:34;3.00;;;2.80;;
12768;SDS011;6448;48.916;8.990;2023-05-29T00:57:35;2.92;;;2.72;;
12768;SDS011;6448;48.916;8.990;2023-05-29T00:58:39;3.15;;;2.92;;
12768;SDS011;6448;48.916;8.990;2023-05-29T00:59:41;3.25;;;3.00;;
12768;SDS011;6448;48.916;8.990;2023-05-29T01:00:43;2.90;;;2.70;;
12768;SDS011;6448;48.916;8.990;2023-05-29T01:01:45;3.30;;;3.00;;
12768;SDS011;6448;48.916;8.990;2023-05-29T01:02:47;3.13;;;2.83;;
12768;SDS011;6448;48.916;8.990;2023-05-29T01:03:48;3.15;;;2.85;;
12768;SDS011;6448;48.916;8.990;2023-05-29T01:04:53;3.42;;;3.10;;
12768;SDS011;6448;48.916;8.990;2023-05-29T01:05:54;3.40;;;3.10;;
12768;SDS011;6448;48.916;8.990;2023-05-29T01:06:57;3.73;;;2.97;;
12768;SDS011;6448;48.916;8.990;2023-05-29T01:08:00;3.03;;;2.73;;
12768;SDS011;6448;48.916;8.990;2023-05-29T01:09:02;2.72;;;2.53;;
12768;SDS011;6448;48.916;8.990;2023-05-29T01:10:04;3.17;;;2.97;;
12768;SDS011;6448;48.916;8.990;2023-05-29T01:11:08;3.33;;;2.80;;
12768;SDS011;6448;48.916;8.990;2023-05-29T01:12:19;3.00;;;2.70;;
12768;SDS011;6448;48.916;8.990;2023-05-29T01:13:31;2.90;;;2.70;;
12768;SDS011;6448;48.916;8.990;2023-05-29T01:14:36;3.00;;;2.80;;
12768;SDS011;6448;48.916;8.990;2023-05-29T01:15:46;3.20;;;2.90;;
12768;SDS011;6448;48.916;8.990;2023-05-29T01:16:55;3.20;;;3.00;;
12768;SDS011;6448;48.916;8.990;2023-05-29T01:18:07;2.90;;;2.70;;
12768;SDS011;6448;48.916;8.990;2023-05-29T01:19:16;2.90;;;2.70;;
12768;SDS011;6448;48.916;8.990;2023-05-29T01:20:27;3.03;;;2.80;;
12768;SDS011;6448;48.916;8.990;2023-05-29T01:21:41;3.00;;;2.80;;
12768;SDS011;6448;48.916;8.990;2023-05-29T01:23:06;3.13;;;2.83;;
12768;SDS011;6448;48.916;8.990;2023-05-29T01:24:15;3.07;;;2.77;;
12768;SDS011;6448;48.916;8.990;2023-05-29T01:25:29;2.95;;;2.65;;
12768;SDS011;6448;48.916;8.990;2023-05-29T01:26:42;3.33;;;3.03;;
12768;SDS011;6448;48.916;8.990;2023-05-29T01:27:50;2.95;;;2.75;;
12768;SDS011;6448;48.916;8.990;2023-05-29T01:28:52;3.10;;;2.80;;
12768;SDS011;6448;48.916;8.990;2023-05-29T01:29:57;2.70;;;2.50;;
12768;SDS011;6448;48.916;8.990;2023-05-29T01:31:03;3.05;;;2.75;;
12768;SDS011;6448;48.916;8.990;2023-05-29T01:32:05;3.20;;;2.90;;
12768;SDS011;6448;48.916;8.990;2023-05-29T01:33:06;3.00;;;2.70;;
12768;SDS011;6448;48.916;8.990;2023-05-29T01:34:08;2.70;;;2.50;;
12768;SDS011;6448;48.916;8.990;2023-05-29T01:35:09;3.30;;;3.00;;
12768;SDS011;6448;48.916;8.990;2023-05-29T01:36:11;2.90;;;2.70;;
12768;SDS011;6448;48.916;8.990;2023-05-29T01:37:12;2.80;;;2.60;;
12768;SDS011;6448;48.916;8.990;2023-05-29T01:38:13;2.88;;;2.67;;
12768;SDS011;6448;48.916;8.990;2023-05-29T01:39:14;3.00;;;2.80;;
12768;SDS011;6448;48.916;8.990;2023-05-29T01:40:17;3.00;;;2.70;;
12768;SDS011;6448;48.916;8.990;2023-05-29T01:41:18;3.00;;;2.60;;
12768;SDS011;6448;48.916;8.990;2023-05-29T01:42:23;2.97;;;2.75;;
12768;SDS011;6448;48.916;8.990;2023-05-29T01:43:24;2.90;;;2.70;;
12768;SDS011;6448;48.916;8.990;2023-05-29T01:44:27;2.60;;;2.40;;
12768;SDS011;6448;48.916;8.990;2023-05-29T01:45:30;2.90;;;2.60;;
12768;SDS011;6448;48.916;8.990;2023-05-29T01:46:31;2.90;;;2.60;;
12768;SDS011;6448;48.916;8.990;2023-05-29T01:47:34;2.85;;;2.65;;
12768;SDS011;6448;48.916;8.990;2023-05-29T01:48:35;2.97;;;2.78;;
12768;SDS011;6448;48.916;8.990;2023-05-29T01:49:37;2.55;;;2.35;;
12768;SDS011;6448;48.916;8.990;2023-05-29T01:50:39;2.90;;;2.70;;
12768;SDS011;6448;48.916;8.990;2023-05-29T01:51:44;2.90;;;2.70;;
12768;SDS011;6448;48.916;8.990;2023-05-29T01:52:44;2.95;;;2.75;;
12768;SDS011;6448;48.916;8.990;2023-05-29T01:53:46;2.80;;;2.60;;
12768;SDS011;6448;48.916;8.990;2023-05-29T01:54:50;3.03;;;2.72;;
12768;SDS011;6448;48.916;8.990;2023-05-29T01:55:51;2.72;;;2.53;;
12768;SDS011;6448;48.916;8.990;2023-05-29T01:56:53;2.80;;;2.60;;
12768;SDS011;6448;48.916;8.990;2023-05-29T01:57:56;3.17;;;2.63;;
12768;SDS011;6448;48.916;8.990;2023-05-29T01:58:59;2.90;;;2.60;;
12768;SDS011;6448;48.916;8.990;2023-05-29T02:00:03;2.80;;;2.60;;
12768;SDS011;6448;48.916;8.990;2023-05-29T02:01:14;2.90;;;2.70;;
12768;SDS011;6448;48.916;8.990;2023-05-29T02:02:16;3.00;;;2.70;;
12768;SDS011;6448;48.916;8.990;2023-05-29T02:03:17;3.20;;;2.75;;
12768;SDS011;6448;48.916;8.990;2023-05-29T02:04:18;2.90;;;2.60;;
12768;SDS011;6448;48.916;8.990;2023-05-29T02:05:20;2.97;;;2.78;;
12768;SDS011;6448;48.916;8.990;2023-05-29T02:06:21;2.80;;;2.60;;
12768;SDS011;6448;48.916;8.990;2023-05-29T02:07:23;2.92;;;2.70;;
12768;SDS011;6448;48.916;8.990;2023-05-29T02:08:24;2.75;;;2.55;;
12768;SDS011;6448;48.916;8.990;2023-05-29T02:09:26;3.15;;;2.58;;
12768;SDS011;6448;48.916;8.990;2023-05-29T02:10:27;2.80;;;2.60;;
12768;SDS011;6448;48.916;8.990;2023-05-29T02:11:30;2.92;;;2.63;;
12768;SDS011;6448;48.916;8.990;2023-05-29T02:12:31;2.85;;;2.65;;
12768;SDS011;6448;48.916;8.990;2023-05-29T02:13:34;2.80;;;2.60;;
12768;SDS011;6448;48.916;8.990;2023-05-29T02:14:35;3.15;;;2.85;;
12768;SDS011;6448;48.916;8.990;2023-05-29T02:15:37;2.70;;;2.50;;
12768;SDS011;6448;48.916;8.990;2023-05-29T02:16:38;2.70;;;2.50;;
12768;SDS011;6448;48.916;8.990;2023-05-29T02:17:41;3.05;;;2.70;;
12768;SDS011;6448;48.916;8.990;2023-05-29T02:18:41;2.93;;;2.70;;
12768;SDS011;6448;48.916;8.990;2023-05-29T02:19:43;2.88;;;2.67;;
12768;SDS011;6448;48.916;8.990;2023-05-29T02:20:44;2.70;;;2.50;;
12768;SDS011;6448;48.916;8.990;2023-05-29T02:21:54;2.75;;;2.55;;
12768;SDS011;6448;48.916;8.990;2023-05-29T02:22:56;2.92;;;2.63;;
12768;SDS011;6448;48.916;8.990;2023-05-29T02:23:58;2.90;;;2.70;;
12768;SDS011;6448;48.916;8.990;2023-05-29T02:25:00;2.75;;;2.55;;
12768;SDS011;6448;48.916;8.990;2023-05-29T02:26:01;2.90;;;2.70;;
12768;SDS011;6448;48.916;8.990;2023-05-29T02:27:03;2.95;;;2.70;;
12768;SDS011;6448;48.916;8.990;2023-05-29T02:28:04;2.70;;;2.50;;
12768;SDS011;6448;48.916;8.990;2023-05-29T02:29:08;2.90;;;2.70;;
12768;SDS011;6448;48.916;8.990;2023-05-29T02:30:09;2.60;;;2.40;;
12768;SDS011;6448;48.916;8.990;2023-05-29T02:31:11;2.42;;;2.22;;
12768;SDS011;6448;48.916;8.990;2023-05-29T02:32:12;2.30;;;2.10;;
12768;SDS011;6448;48.916;8.990;2023-05-29T02:33:14;3.00;;;2.60;;
12768;SDS011;6448;48.916;8.990;2023-05-29T02:34:15;2.63;;;2.42;;
12768;SDS011;6448;48.916;8.990;2023-05-29T02:35:16;3.00;;;2.60;;
12768;SDS011;6448;48.916;8.990;2023-05-29T02:36:20;2.83;;;2.60;;
12768;SDS011;6448;48.916;8.990;2023-05-29T02:37:24;2.63;;;2.42;;
12768;SDS011;6448;48.916;8.990;2023-05-29T02:38:26;2.83;;;2.60;;
12768;SDS011;6448;48.916;8.990;2023-05-29T02:39:27;2.70;;;2.50;;
12768;SDS011;6448;48.916;8.990;2023-05-29T02:40:28;2.70;;;2.40;;
12768;SDS011;6448;48.916;8.990;2023-05-29T02:41:32;2.80;;;2.60;;
12768;SDS011;6448;48.916;8.990;2023-05-29T02:42:32;2.70;;;2.50;;
12768;SDS011;6448;48.916;8.990;2023-05-29T02:43:34;2.88;;;2.67;;
12768;SDS011;6448;48.916;8.990;2023-05-29T02:44:36;2.60;;;2.40;;
12768;SDS011;6448;48.916;8.990;2023-05-29T02:45:38;2.95;;;2.75;;
12768;SDS011;6448;48.916;8.990;2023-05-29T02:46:39;2.80;;;2.60;;
12768;SDS011;6448;48.916;8.990;2023-05-29T02:47:42;2.95;;;2.67;;
12768;SDS011;6448;48.916;8.990;2023-05-29T02:48:43;2.72;;;2.53;;
12768;SDS011;6448;48.916;8.990;2023-05-29T02:49:46;2.83;;;2.58;;
12768;SDS011;6448;48.916;8.990;2023-05-29T02:50:46;3.10;;;2.80;;
12768;SDS011;6448;48.916;8.990;2023-05-29T02:51:48;2.88;;;2.60;;
12768;SDS011;6448;48.916;8.990;2023-05-29T02:52:49;2.50;;;2.30;;
12768;SDS011;6448;48.916;8.990;2023-05-29T02:53:51;2.87;;;2.60;;
12768;SDS011;6448;48.916;8.990;2023-05-29T02:54:53;2.60;;;2.40;;
12768;SDS011;6448;48.916;8.990;2023-05-29T02:55:57;2.92;;;2.72;;
12768;SDS011;6448;48.916;8.990;2023-05-29T02:56:57;2.95;;;2.70;;
12768;SDS011;6448;48.916;8.990;2023-05-29T02:58:00;2.90;;;2.60;;
12768;SDS011;6448;48.916;8.990;2023-05-29T02:59:01;3.10;;;2.80;;
12768;SDS011;6448;48.916;8.990;2023-05-29T03:00:05;2.67;;;2.47;;
12768;SDS011;6448;48.916;8.990;2023-05-29T03:01:08;2.60;;;2.40;;
12768;SDS011;6448;48.916;8.990;2023-05-29T03:02:09;2.70;;;2.50;;
12768;SDS011;6448;48.916;8.990;2023-05-29T03:03:10;2.80;;;2.50;;
12768;SDS011;6448;48.916;8.990;2023-05-29T03:04:13;2.67;;;2.47;;
12768;SDS011;6448;48.916;8.990;2023-05-29T03:05:14;3.13;;;2.80;;
12768;SDS011;6448;48.916;8.990;2023-05-29T03:06:16;2.85;;;2.65;;
12768;SDS011;6448;48.916;8.990;2023-05-29T03:07:17;2.70;;;2.50;;
12768;SDS011;6448;48.916;8.990;2023-05-29T03:08:19;3.03;;;2.80;;
12768;SDS011;6448;48.916;8.990;2023-05-29T03:09:20;2.65;;;2.45;;
12768;SDS011;6448;48.916;8.990;2023-05-29T03:10:23;2.70;;;2.50;;
12768;SDS011;6448;48.916;8.990;2023-05-29T03:11:24;2.73;;;2.53;;
12768;SDS011;6448;48.916;8.990;2023-05-29T03:12:26;2.60;;;2.40;;
12768;SDS011;6448;48.916;8.990;2023-05-29T03:13:28;2.72;;;2.53;;
12768;SDS011;6448;48.916;8.990;2023-05-29T03:14:37;2.72;;;2.50;;
12768;SDS011;6448;48.916;8.990;2023-05-29T03:15:44;3.00;;;2.70;;
12768;SDS011;6448;48.916;8.990;2023-05-29T03:16:49;2.83;;;2.60;;
12768;SDS011;6448;48.916;8.990;2023-05-29T03:17:50;2.80;;;2.60;;
12768;SDS011;6448;48.916;8.990;2023-05-29T03:18:58;2.80;;;2.50;;
12768;SDS011;6448;48.916;8.990;2023-05-29T03:19:58;2.78;;;2.58;;
12768;SDS011;6448;48.916;8.990;2023-05-29T03:21:00;3.03;;;2.70;;
12768;SDS011;6448;48.916;8.990;2023-05-29T03:22:02;2.75;;;2.55;;
12768;SDS011;6448;48.916;8.990;2023-05-29T03:23:04;2.67;;;2.47;;
12768;SDS011;6448;48.916;8.990;2023-05-29T03:24:07;2.63;;;2.42;;
12768;SDS011;6448;48.916;8.990;2023-05-29T03:25:10;2.70;;;2.50;;
12768;SDS011;6448;48.916;8.990;2023-05-29T03:26:11;2.80;;;2.60;;
12768;SDS011;6448;48.916;8.990;2023-05-29T03:27:14;3.05;;;2.85;;
12768;SDS011;6448;48.916;8.990;2023-05-29T03:28:17;3.08;;;2.78;;
12768;SDS011;6448;48.916;8.990;2023-05-29T03:29:20;2.85;;;2.65;;
12768;SDS011;6448;48.916;8.990;2023-05-29T03:30:21;2.70;;;2.40;;
12768;SDS011;6448;48.916;8.990;2023-05-29T03:31:26;2.67;;;2.47;;
12768;SDS011;6448;48.916;8.990;2023-05-29T03:32:27;2.63;;;2.42;;
12768;SDS011;6448;48.916;8.990;2023-05-29T03:33:28;2.95;;;2.45;;
12768;SDS011;6448;48.916;8.990;2023-05-29T03:34:49;2.67;;;2.38;;
12768;SDS011;6448;48.916;8.990;2023-05-29T03:35:51;2.75;;;2.55;;
12768;SDS011;6448;48.916;8.990;2023-05-29T03:36:52;2.80;;;2.60;;
12768;SDS011;6448;48.916;8.990;2023-05-29T03:37:54;3.00;;;2.72;;
12768;SDS011;6448;48.916;8.990;2023-05-29T03:38:54;2.50;;;2.30;;
12768;SDS011;6448;48.916;8.990;2023-05-29T03:39:56;2.60;;;2.40;;
12768;SDS011;6448;48.916;8.990;2023-05-29T03:40:58;2.75;;;2.50;;
12768;SDS011;6448;48.916;8.990;2023-05-29T03:42:00;2.67;;;2.47;;
12768;SDS011;6448;48.916;8.990;2023-05-29T03:43:03;2.83;;;2.63;;
12768;SDS011;6448;48.916;8.990;2023-05-29T03:44:04;2.50;;;2.30;;
12768;SDS011;6448;48.916;8.990;2023-05-29T03:45:06;2.75;;;2.50;;
12768;SDS011;6448;48.916;8.990;2023-05-29T03:46:10;3.00;;;2.70;;
12768;SDS011;6448;48.916;8.990;2023-05-29T03:47:13;2.80;;;2.60;;
12768;SDS011;6448;48.916;8.990;2023-05-29T03:48:15;2.72;;;2.53;;
12768;SDS011;6448;48.916;8.990;2023-05-29T03:49:17;2.60;;;2.40;;
12768;SDS011;6448;48.916;8.990;2023-05-29T03:50:20;2.80;;;2.60;;
12768;SDS011;6448;48.916;8.990;2023-05-29T03:51:21;2.83;;;2.53;;
12768;SDS011;6448;48.916;8.990;2023-05-29T03:52:24;2.95;;;2.70;;
12768;SDS011;6448;48.916;8.990;2023-05-29T03:53:25;2.60;;;2.40;;
12768;SDS011;6448;48.916;8.990;2023-05-29T03:54:27;2.70;;;2.50;;
12768;SDS011;6448;48.916;8.990;2023-05-29T03:55:28;2.70;;;2.45;;
12768;SDS011;6448;48.916;8.990;2023-05-29T03:56:30;2.97;;;2.60;;
12768;SDS011;6448;48.916;8.990;2023-05-29T03:57:31;2.92;;;2.72;;
12768;SDS011;6448;48.916;8.990;2023-05-29T03:58:33;2.80;;;2.60;;
12768;SDS011;6448;48.916;8.990;2023-05-29T03:59:35;2.78;;;2.58;;
12768;SDS011;6448;48.916;8.990;2023-05-29T04:00:36;2.92;;;2.63;;
12768;SDS011;6448;48.916;8.990;2023-05-29T04:01:37;2.60;;;2.40;;
12768;SDS011;6448;48.916;8.990;2023-05-29T04:02:40;2.70;;;2.50;;
12768;SDS011;6448;48.916;8.990;2023-05-29T04:03:41;2.78;;;2.58;;
12768;SDS011;6448;48.916;8.990;2023-05-29T04:04:44;2.67;;;2.40;;
12768;SDS011;6448;48.916;8.990;2023-05-29T04:05:45;2.53;;;2.33;;
12768;SDS011;6448;48.916;8.990;2023-05-29T04:06:47;2.67;;;2.47;;
12768;SDS011;6448;48.916;8.990;2023-05-29T04:07:49;2.50;;;2.30;;
12768;SDS011;6448;48.916;8.990;2023-05-29T04:08:49;2.63;;;2.42;;
12768;SDS011;6448;48.916;8.990;2023-05-29T04:09:51;2.53;;;2.33;;
12768;SDS011;6448;48.916;8.990;2023-05-29T04:10:52;2.63;;;2.30;;
12768;SDS011;6448;48.916;8.990;2023-05-29T04:11:55;2.90;;;2.70;;
12768;SDS011;6448;48.916;8.990;2023-05-29T04:12:56;3.08;;;2.78;;
12768;SDS011;6448;48.916;8.990;2023-05-29T04:13:58;2.80;;;2.60;;
12768;SDS011;6448;48.916;8.990;2023-05-29T04:15:00;2.83;;;2.60;;
12768;SDS011;6448;48.916;8.990;2023-05-29T04:16:02;2.88;;;2.67;;
12768;SDS011;6448;48.916;8.990;2023-05-29T04:17:03;2.70;;;2.50;;
12768;SDS011;6448;48.916;8.990;2023-05-29T04:18:06;2.72;;;2.53;;
12768;SDS011;6448;48.916;8.990;2023-05-29T04:19:07;2.80;;;2.47;;
12768;SDS011;6448;48.916;8.990;2023-05-29T04:20:09;3.03;;;2.72;;
12768;SDS011;6448;48.916;8.990;2023-05-29T04:21:11;3.05;;;2.75;;
12768;SDS011;6448;48.916;8.990;2023-05-29T04:22:13;2.90;;;2.70;;
12768;SDS011;6448;48.916;8.990;2023-05-29T04:23:14;3.05;;;2.75;;
12768;SDS011;6448;48.916;8.990;2023-05-29T04:24:16;2.88;;;2.67;;
12768;SDS011;6448;48.916;8.990;2023-05-29T04:25:17;2.60;;;2.40;;
12768;SDS011;6448;48.916;8.990;2023-05-29T04:26:19;2.78;;;2.58;;
12768;SDS011;6448;48.916;8.990;2023-05-29T04:27:24;2.60;;;2.40;;
12768;SDS011;6448;48.916;8.990;2023-05-29T04:28:27;2.88;;;2.67;;
12768;SDS011;6448;48.916;8.990;2023-05-29T04:29:29;3.00;;;2.70;;
12768;SDS011;6448;48.916;8.990;2023-05-29T04:30:32;3.30;;;3.00;;
12768;SDS011;6448;48.916;8.990;2023-05-29T04:31:34;3.17;;;2.90;;
12768;SDS011;6448;48.916;8.990;2023-05-29T04:32:37;3.20;;;2.90;;
12768;SDS011;6448;48.916;8.990;2023-05-29T04:33:39;2.78;;;2.58;;
12768;SDS011;6448;48.916;8.990;2023-05-29T04:34:41;2.83;;;2.63;;
12768;SDS011;6448;48.916;8.990;2023-05-29T04:35:44;3.08;;;2.78;;
12768;SDS011;6448;48.916;8.990;2023-05-29T04:36:48;3.10;;;2.90;;
12768;SDS011;6448;48.916;8.990;2023-05-29T04:37:49;3.00;;;2.70;;
12768;SDS011;6448;48.916;8.990;2023-05-29T04:38:53;3.03;;;2.80;;
12768;SDS011;6448;48.916;8.990;2023-05-29T04:39:55;3.15;;;2.83;;
12768;SDS011;6448;48.916;8.990;2023-05-29T04:40:59;3.20;;;2.90;;
12768;SDS011;6448;48.916;8.990;2023-05-29T04:42:02;2.80;;;2.60;;
12768;SDS011;6448;48.916;8.990;2023-05-29T04:43:05;3.22;;;2.92;;
12768;SDS011;6448;48.916;8.990;2023-05-29T04:44:21;2.70;;;2.50;;
12768;SDS011;6448;48.916;8.990;2023-05-29T04:45:28;3.03;;;2.72;;
12768;SDS011;6448;48.916;8.990;2023-05-29T04:46:30;3.10;;;2.80;;
12768;SDS011;6448;48.916;8.990;2023-05-29T04:47:32;3.30;;;3.00;;
12768;SDS011;6448;48.916;8.990;2023-05-29T04:48:34;2.83;;;2.63;;
12768;SDS011;6448;48.916;8.990;2023-05-29T04:49:36;3.17;;;2.90;;
12768;SDS011;6448;48.916;8.990;2023-05-29T04:50:39;2.78;;;2.58;;
12768;SDS011;6448;48.916;8.990;2023-05-29T04:51:40;2.70;;;2.50;;
12768;SDS011;6448;48.916;8.990;2023-05-29T04:52:41;2.95;;;2.75;;
12768;SDS011;6448;48.916;8.990;2023-05-29T04:53:44;3.20;;;2.90;;
12768;SDS011;6448;48.916;8.990;2023-05-29T04:54:46;2.97;;;2.63;;
12768;SDS011;6448;48.916;8.990;2023-05-29T04:55:49;3.03;;;2.72;;
12768;SDS011;6448;48.916;8.990;2023-05-29T04:56:51;3.03;;;2.83;;
12768;SDS011;6448;48.916;8.990;2023-05-29T04:57:53;3.30;;;3.00;;
12768;SDS011;6448;48.916;8.990;2023-05-29T04:58:55;3.40;;;3.10;;
12768;SDS011;6448;48.916;8.990;2023-05-29T04:59:58;3.10;;;2.80;;
12768;SDS011;6448;48.916;8.990;2023-05-29T05:01:01;3.40;;;3.10;;
12768;SDS011;6448;48.916;8.990;2023-05-29T05:02:05;3.25;;;2.95;;
12768;SDS011;6448;48.916;8.990;2023-05-29T05:03:07;3.22;;;2.92;;
12768;SDS011;6448;48.916;8.990;2023-05-29T05:04:09;3.30;;;3.00;;
12768;SDS011;6448;48.916;8.990;2023-05-29T05:05:12;3.10;;;2.80;;
12768;SDS011;6448;48.916;8.990;2023-05-29T05:06:13;2.70;;;2.50;;
12768;SDS011;6448;48.916;8.990;2023-05-29T05:07:17;3.33;;;3.03;;
12768;SDS011;6448;48.916;8.990;2023-05-29T05:08:18;2.97;;;2.78;;
12768;SDS011;6448;48.916;8.990;2023-05-29T05:09:20;2.90;;;2.70;;
12768;SDS011;6448;48.916;8.990;2023-05-29T05:10:21;2.80;;;2.60;;
12768;SDS011;6448;48.916;8.990;2023-05-29T05:11:23;3.25;;;2.95;;
12768;SDS011;6448;48.916;8.990;2023-05-29T05:12:24;3.40;;;3.00;;
12768;SDS011;6448;48.916;8.990;2023-05-29T05:13:26;3.03;;;2.83;;
12768;SDS011;6448;48.916;8.990;2023-05-29T05:14:27;3.00;;;2.80;;
12768;SDS011;6448;48.916;8.990;2023-05-29T05:15:29;3.30;;;3.00;;
12768;SDS011;6448;48.916;8.990;2023-05-29T05:16:30;3.40;;;3.10;;
12768;SDS011;6448;48.916;8.990;2023-05-29T05:17:33;3.28;;;2.97;;
12768;SDS011;6448;48.916;8.990;2023-05-29T05:18:34;3.40;;;3.10;;
12768;SDS011;6448;48.916;8.990;2023-05-29T05:19:39;3.22;;;2.92;;
12768;SDS011;6448;48.916;8.990;2023-05-29T05:20:42;3.15;;;2.85;;
12768;SDS011;6448;48.916;8.990;2023-05-29T05:21:44;3.17;;;2.88;;
12768;SDS011;6448;48.916;8.990;2023-05-29T05:22:45;2.97;;;2.78;;
12768;SDS011;6448;48.916;8.990;2023-05-29T05:23:47;3.40;;;3.10;;
12768;SDS011;6448;48.916;8.990;2023-05-29T05:24:48;3.53;;;3.23;;
12768;SDS011;6448;48.916;8.990;2023-05-29T05:25:52;3.30;;;3.00;;
12768;SDS011;6448;48.916;8.990;2023-05-29T05:26:53;3.10;;;2.90;;
12768;SDS011;6448;48.916;8.990;2023-05-29T05:27:55;3.13;;;2.83;;
12768;SDS011;6448;48.916;8.990;2023-05-29T05:28:58;3.25;;;2.95;;
12768;SDS011;6448;48.916;8.990;2023-05-29T05:30:02;3.35;;;3.05;;
12768;SDS011;6448;48.916;8.990;2023-05-29T05:31:05;3.25;;;2.90;;
12768;SDS011;6448;48.916;8.990;2023-05-29T05:32:07;3.15;;;2.90;;
12768;SDS011;6448;48.916;8.990;2023-05-29T05:33:08;3.38;;;3.00;;
12768;SDS011;6448;48.916;8.990;2023-05-29T05:34:09;3.70;;;3.28;;
12768;SDS011;6448;48.916;8.990;2023-05-29T05:35:13;3.22;;;2.97;;
12768;SDS011;6448;48.916;8.990;2023-05-29T05:36:15;3.38;;;3.10;;
12768;SDS011;6448;48.916;8.990;2023-05-29T05:37:17;3.00;;;2.80;;
12768;SDS011;6448;48.916;8.990;2023-05-29T05:38:17;3.22;;;2.92;;
12768;SDS011;6448;48.916;8.990;2023-05-29T05:39:19;3.33;;;3.03;;
12768;SDS011;6448;48.916;8.990;2023-05-29T05:40:21;3.22;;;2.95;;
12768;SDS011;6448;48.916;8.990;2023-05-29T05:41:32;3.35;;;3.05;;
12768;SDS011;6448;48.916;8.990;2023-05-29T05:42:34;3.60;;;2.90;;
12768;SDS011;6448;48.916;8.990;2023-05-29T05:43:40;3.40;;;3.10;;
12768;SDS011;6448;48.916;8.990;2023-05-29T05:44:48;3.40;;;3.10;;
12768;SDS011;6448;48.916;8.990;2023-05-29T05:45:50;3.40;;;3.10;;
12768;SDS011;6448;48.916;8.990;2023-05-29T05:46:50;3.30;;;3.00;;
12768;SDS011;6448;48.916;8.990;2023-05-29T05:47:54;3.70;;;3.40;;
12768;SDS011;6448;48.916;8.990;2023-05-29T05:48:57;3.30;;;3.00;;
12768;SDS011;6448;48.916;8.990;2023-05-29T05:50:00;3.28;;;2.97;;
12768;SDS011;6448;48.916;8.990;2023-05-29T05:51:02;3.80;;;3.50;;
12768;SDS011;6448;48.916;8.990;2023-05-29T05:52:07;4.20;;;3.15;;
12768;SDS011;6448;48.916;8.990;2023-05-29T05:53:08;3.55;;;3.25;;
12768;SDS011;6448;48.916;8.990;2023-05-29T05:54:11;3.42;;;3.13;;
12768;SDS011;6448;48.916;8.990;2023-05-29T05:55:12;3.50;;;3.10;;
12768;SDS011;6448;48.916;8.990;2023-05-29T05:56:14;3.70;;;3.40;;
12768;SDS011;6448;48.916;8.990;2023-05-29T05:57:15;4.10;;;3.17;;
12768;SDS011;6448;48.916;8.990;2023-05-29T05:58:17;3.58;;;3.03;;
12768;SDS011;6448;48.916;8.990;2023-05-29T05:59:18;3.30;;;3.00;;
12768;SDS011;6448;48.916;8.990;2023-05-29T06:00:21;3.50;;;3.20;;
12768;SDS011;6448;48.916;8.990;2023-05-29T06:01:22;3.53;;;3.22;;
12768;SDS011;6448;48.916;8.990;2023-05-29T06:02:24;3.40;;;3.10;;
12768;SDS011;6448;48.916;8.990;2023-05-29T06:03:26;3.30;;;3.00;;
12768;SDS011;6448;48.916;8.990;2023-05-29T06:04:32;3.50;;;3.20;;
12768;SDS011;6448;48.916;8.990;2023-05-29T06:05:33;3.05;;;2.85;;
12768;SDS011;6448;48.916;8.990;2023-05-29T06:06:36;3.45;;;3.15;;
12768;SDS011;6448;48.916;8.990;2023-05-29T06:07:39;3.72;;;2.83;;
12768;SDS011;6448;48.916;8.990;2023-05-29T06:08:42;3.00;;;2.80;;
12768;SDS011;6448;48.916;8.990;2023-05-29T06:09:44;3.38;;;3.08;;
12768;SDS011;6448;48.916;8.990;2023-05-29T06:10:45;3.45;;;3.15;;
12768;SDS011;6448;48.916;8.990;2023-05-29T06:11:46;3.38;;;3.00;;
12768;SDS011;6448;48.916;8.990;2023-05-29T06:12:49;3.83;;;3.25;;
12768;SDS011;6448;48.916;8.990;2023-05-29T06:13:57;3.30;;;3.00;;
12768;SDS011;6448;48.916;8.990;2023-05-29T06:15:02;3.40;;;3.10;;
12768;SDS011;6448;48.916;8.990;2023-05-29T06:16:04;3.25;;;2.95;;
12768;SDS011;6448;48.916;8.990;2023-05-29T06:17:06;3.50;;;3.20;;
12768;SDS011;6448;48.916;8.990;2023-05-29T06:18:06;3.53;;;2.95;;
12768;SDS011;6448;48.916;8.990;2023-05-29T06:19:08;3.40;;;3.10;;
12768;SDS011;6448;48.916;8.990;2023-05-29T06:20:25;3.40;;;3.08;;
12768;SDS011;6448;48.916;8.990;2023-05-29T06:21:27;3.38;;;3.05;;
12768;SDS011;6448;48.916;8.990;2023-05-29T06:22:29;3.42;;;3.13;;
12768;SDS011;6448;48.916;8.990;2023-05-29T06:23:32;3.40;;;3.10;;